createdAt,value
2017-07-02T06:30:44.165Z,145
2017-07-02T06:31:45.574Z,175
2017-07-02T06:33:47.341Z,135
2017-07-02T06:34:48.752Z,135
2017-07-02T06:36:10.699Z,140
2017-07-02T06:37:12.107Z,145
2017-07-02T06:38:34.264Z,160
2017-07-02T06:39:35.677Z,160
2017-07-02T06:40:57.625Z,155
2017-07-02T06:41:59.032Z,160
2017-07-02T06:43:20.780Z,165
2017-07-02T06:44:22.187Z,180
2017-07-02T06:45:44.052Z,185
2017-07-02T06:47:25.893Z,180
2017-07-02T06:48:27.298Z,190
2017-07-02T06:49:49.290Z,180
2017-07-02T06:50:50.697Z,160
2017-07-02T06:52:12.648Z,135
2017-07-02T06:53:14.055Z,120
2017-07-02T06:54:36.005Z,130
2017-07-02T06:55:37.413Z,170
2017-07-02T06:56:59.370Z,200
2017-07-02T06:58:00.775Z,185
2017-07-02T06:59:22.731Z,185
2017-07-02T07:00:24.137Z,210
2017-07-02T07:01:46.093Z,255
2017-07-02T07:02:47.521Z,255
2017-07-02T07:04:09.455Z,250
2017-07-02T07:05:10.861Z,230
2017-07-02T07:06:32.814Z,220
2017-07-02T07:07:34.220Z,220
2017-07-02T07:08:56.170Z,180
2017-07-02T07:09:57.576Z,135
2017-07-02T07:11:19.535Z,135
2017-07-02T07:12:20.939Z,170
2017-07-02T07:13:42.892Z,205
2017-07-02T07:14:44.300Z,200
2017-07-02T07:16:06.254Z,185
2017-07-02T07:17:07.662Z,200
2017-07-02T07:18:29.614Z,205
2017-07-02T07:19:31.022Z,185
2017-07-02T07:20:52.974Z,175
2017-07-02T07:21:54.382Z,165
2017-07-02T07:23:16.335Z,180
2017-07-02T07:24:17.744Z,220
2017-07-02T07:25:39.716Z,295
2017-07-02T07:26:41.125Z,310
2017-07-02T07:28:03.057Z,285
2017-07-02T07:29:04.464Z,285
2017-07-02T07:30:06.116Z,295
2017-07-02T07:31:07.523Z,320
2017-07-02T07:32:09.201Z,360
2017-07-02T07:33:10.610Z,400
2017-07-02T07:34:12.023Z,405
2017-07-02T07:35:13.523Z,345
2017-07-02T07:36:14.929Z,305
2017-07-02T07:37:16.343Z,305
2017-07-02T07:38:17.836Z,325
2017-07-02T07:39:19.252Z,365
2017-07-02T07:40:20.662Z,390
2017-07-02T07:41:22.071Z,370
2017-07-02T07:42:23.603Z,390
2017-07-02T07:43:25.008Z,385
2017-07-02T07:44:26.893Z,375
2017-07-02T07:45:28.338Z,395
2017-07-02T07:46:29.980Z,380
2017-07-02T07:47:31.389Z,355
2017-07-02T07:48:33.088Z,340
2017-07-02T07:49:34.499Z,310
2017-07-02T07:50:36.151Z,220
2017-07-02T07:51:37.560Z,230
2017-07-02T07:52:39.235Z,255
2017-07-02T07:53:40.644Z,350
2017-07-02T07:54:42.057Z,300
2017-07-02T07:55:43.555Z,215
2017-07-02T07:56:44.971Z,170
2017-07-02T07:57:46.376Z,170
2017-07-02T07:58:47.877Z,165
2017-07-02T07:59:49.286Z,165
2017-07-02T08:00:50.972Z,145
2017-07-02T08:01:52.382Z,190
2017-07-02T08:02:54.047Z,215
2017-07-02T08:03:55.457Z,240
2017-07-02T08:04:57.133Z,155
2017-07-02T08:05:58.535Z,185
2017-07-02T08:07:00.218Z,215
2017-07-02T08:08:01.628Z,175
2017-07-02T08:09:03.303Z,170
2017-07-02T08:10:04.713Z,240
2017-07-02T08:11:06.122Z,335
2017-07-02T08:12:07.624Z,260
2017-07-02T08:13:09.032Z,255
2017-07-02T08:14:10.464Z,250
2017-07-02T08:15:12.151Z,280
2017-07-02T08:16:13.563Z,240
2017-07-02T08:17:14.976Z,205
2017-07-02T08:18:16.526Z,225
2017-07-02T08:19:17.914Z,175
2017-07-02T08:20:19.325Z,240
2017-07-02T08:21:20.996Z,280
2017-07-02T08:22:22.405Z,210
2017-07-02T08:23:23.817Z,230
2017-07-02T08:24:25.317Z,190
2017-07-02T08:25:26.726Z,210
2017-07-02T08:26:28.135Z,200
2017-07-02T08:27:29.638Z,190
2017-07-02T08:28:31.045Z,175
2017-07-02T08:29:32.573Z,140
2017-07-02T08:30:34.165Z,115
2017-07-02T08:31:35.574Z,75
2017-07-02T08:32:36.984Z,95
2017-07-02T08:33:38.864Z,125
2017-07-02T08:34:40.271Z,90
2017-07-02T08:35:41.684Z,140
2017-07-02T08:36:43.216Z,145
2017-07-02T08:37:44.627Z,145
2017-07-02T08:38:46.302Z,110
2017-07-02T08:39:47.715Z,90
2017-07-02T08:40:49.122Z,110
2017-07-02T08:41:50.623Z,135
2017-07-02T08:42:52.030Z,115
2017-07-02T08:43:53.441Z,110
2017-07-02T08:44:54.954Z,100
2017-07-02T08:45:56.354Z,85
2017-07-02T08:46:57.763Z,85
2017-07-02T08:47:59.476Z,90
2017-07-02T08:49:00.886Z,105
2017-07-02T08:50:02.296Z,115
2017-07-02T08:51:03.734Z,100
2017-07-02T08:52:05.152Z,105
2017-07-02T08:53:06.610Z,110
2017-07-02T08:54:08.026Z,100
2017-07-02T08:55:09.493Z,100
2017-07-02T08:56:10.903Z,135
2017-07-02T08:57:12.375Z,150
2017-07-02T08:58:13.787Z,155
2017-07-02T08:59:15.254Z,165
2017-07-02T09:00:16.666Z,145
2017-07-02T09:01:18.138Z,130
2017-07-02T09:02:19.545Z,150
2017-07-02T09:03:21.020Z,135
2017-07-02T09:04:22.425Z,155
2017-07-02T09:05:23.834Z,110
2017-07-02T09:06:25.341Z,85
2017-07-02T09:07:26.750Z,85
2017-07-02T09:08:28.161Z,65
2017-07-02T09:09:29.688Z,85
2017-07-02T09:10:31.102Z,105
2017-07-02T09:11:32.510Z,95
2017-07-02T09:12:33.981Z,90
2017-07-02T09:13:35.391Z,85
2017-07-02T09:14:36.865Z,70
2017-07-02T09:15:38.294Z,100
2017-07-02T09:16:39.706Z,85
2017-07-02T09:17:41.186Z,90
2017-07-02T09:18:42.595Z,90
2017-07-02T09:19:44.005Z,90
2017-07-02T09:20:45.508Z,90
2017-07-02T09:21:46.920Z,105
2017-07-02T09:22:48.329Z,95
2017-07-02T09:23:49.830Z,100
2017-07-02T09:24:51.240Z,85
2017-07-02T09:25:52.649Z,110
2017-07-02T09:26:54.151Z,100
2017-07-02T09:27:55.564Z,155
2017-07-02T09:28:56.973Z,180
2017-07-02T09:29:58.474Z,175
2017-07-02T09:30:59.883Z,155
2017-07-02T09:32:01.353Z,235
2017-07-02T09:33:02.764Z,265
2017-07-02T09:34:04.234Z,310
2017-07-02T09:35:05.653Z,325
2017-07-02T09:36:07.116Z,335
2017-07-02T09:37:08.527Z,330
2017-07-02T09:38:09.994Z,245
2017-07-02T09:39:11.406Z,165
2017-07-02T09:40:12.885Z,120
2017-07-02T09:41:14.285Z,105
2017-07-02T09:42:15.760Z,95
2017-07-02T09:43:17.165Z,95
2017-07-02T09:44:18.639Z,160
2017-07-02T09:45:20.075Z,180
2017-07-02T09:46:21.488Z,145
2017-07-02T09:47:22.960Z,120
2017-07-02T09:48:24.367Z,80
2017-07-02T09:49:25.778Z,85
2017-07-02T09:50:27.281Z,75
2017-07-02T09:51:28.695Z,65
2017-07-02T09:52:30.099Z,60
2017-07-02T09:53:31.605Z,100
2017-07-02T09:54:33.015Z,110
2017-07-02T09:55:34.426Z,105
2017-07-02T09:56:35.986Z,130
2017-07-02T09:57:37.398Z,110
2017-07-02T09:58:39.012Z,125
2017-07-02T09:59:40.422Z,135
2017-07-02T10:00:41.892Z,130
2017-07-02T10:01:43.305Z,180
2017-07-02T10:02:44.766Z,115
2017-07-02T10:03:46.243Z,95
2017-07-02T10:04:47.655Z,110
2017-07-02T10:05:49.065Z,85
2017-07-02T10:06:50.536Z,115
2017-07-02T10:07:51.946Z,100
2017-07-02T10:08:53.417Z,105
2017-07-02T10:09:54.828Z,90
2017-07-02T10:10:56.296Z,90
2017-07-02T10:11:57.706Z,75
2017-07-02T10:12:59.179Z,95
2017-07-02T10:14:00.586Z,95
2017-07-02T10:15:02.061Z,130
2017-07-02T10:16:03.472Z,120
2017-07-02T10:17:04.976Z,90
2017-07-02T10:18:06.386Z,75
2017-07-02T10:19:07.858Z,85
2017-07-02T10:20:09.646Z,105
2017-07-02T10:21:11.148Z,140
2017-07-02T10:22:12.559Z,130
2017-07-02T10:23:14.028Z,115
2017-07-02T10:24:15.436Z,180
2017-07-02T10:25:16.910Z,150
2017-07-02T10:26:18.322Z,120
2017-07-02T10:27:19.790Z,215
2017-07-02T10:28:21.199Z,160
2017-07-02T10:29:22.671Z,115
2017-07-02T10:30:24.080Z,150
2017-07-02T10:31:25.553Z,205
2017-07-02T10:32:26.961Z,260
2017-07-02T10:33:28.431Z,330
2017-07-02T10:34:29.840Z,270
2017-07-02T10:35:31.311Z,275
2017-07-02T10:36:32.716Z,345
2017-07-02T10:37:34.184Z,330
2017-07-02T10:38:35.599Z,250
2017-07-02T10:39:37.076Z,285
2017-07-02T10:40:38.556Z,220
2017-07-02T10:41:40.158Z,290
2017-07-02T10:42:41.564Z,225
2017-07-02T10:43:43.039Z,230
2017-07-02T10:44:44.448Z,215
2017-07-02T10:45:45.918Z,220
2017-07-02T10:46:47.330Z,360
2017-07-02T10:47:48.741Z,400
2017-07-02T10:48:50.240Z,410
2017-07-02T10:49:51.647Z,300
2017-07-02T10:50:53.054Z,385
2017-07-02T10:51:54.562Z,405
2017-07-02T10:52:55.972Z,395
2017-07-02T10:53:57.382Z,445
2017-07-02T10:54:58.881Z,525
2017-07-02T10:56:00.294Z,460
2017-07-02T10:57:01.703Z,340
2017-07-02T10:58:03.204Z,350
2017-07-02T10:59:05.196Z,320
2017-07-02T11:00:06.697Z,250
2017-07-02T11:01:08.115Z,220
2017-07-02T11:02:09.577Z,305
2017-07-02T11:03:10.989Z,265
2017-07-02T11:04:23.624Z,250
2017-07-02T11:05:25.032Z,245
2017-07-02T11:06:26.602Z,220
2017-07-02T11:07:28.014Z,280
2017-07-02T11:08:29.430Z,335
2017-07-02T11:09:30.923Z,215
2017-07-02T11:10:32.378Z,190
2017-07-02T11:11:33.744Z,255
2017-07-02T11:12:35.245Z,285
2017-07-02T11:13:36.659Z,435
2017-07-02T11:14:38.070Z,340
2017-07-02T11:15:39.566Z,315
2017-07-02T11:16:40.977Z,360
2017-07-02T11:17:42.387Z,410
2017-07-02T11:18:43.893Z,360
2017-07-02T11:19:45.586Z,320
2017-07-02T11:20:46.995Z,275
2017-07-02T11:21:48.620Z,295
2017-07-02T11:22:50.027Z,320
2017-07-02T11:23:51.816Z,300
2017-07-02T11:24:53.353Z,320
2017-07-02T11:25:54.764Z,290
2017-07-02T11:26:56.172Z,275
2017-07-02T11:27:57.673Z,295
2017-07-02T11:28:59.084Z,290
2017-07-02T11:30:00.490Z,230
2017-07-02T11:31:01.994Z,205
2017-07-02T11:32:03.406Z,165
2017-07-02T11:33:04.817Z,155
2017-07-02T11:34:06.310Z,75
2017-07-02T11:35:07.721Z,70
2017-07-02T11:36:09.408Z,105
2017-07-02T11:37:10.815Z,100
2017-07-02T11:38:12.230Z,135
2017-07-02T11:39:13.720Z,125
2017-07-02T11:40:15.130Z,110
2017-07-02T11:41:16.559Z,115
2017-07-02T11:42:18.040Z,140
2017-07-02T11:43:19.455Z,135
2017-07-02T11:44:20.861Z,130
2017-07-02T11:45:22.362Z,130
2017-07-02T11:46:23.773Z,105
2017-07-02T11:47:25.191Z,65
2017-07-02T11:48:26.675Z,40
2017-07-02T11:49:28.086Z,40
2017-07-02T11:50:29.494Z,65
2017-07-02T11:51:31.003Z,60
2017-07-02T11:52:32.421Z,55
2017-07-02T11:53:33.822Z,50
2017-07-02T11:54:35.323Z,70
2017-07-02T11:55:36.732Z,130
2017-07-02T11:56:38.146Z,150
2017-07-02T11:57:39.759Z,220
2017-07-02T11:58:41.174Z,305
2017-07-02T11:59:42.729Z,415
2017-07-02T12:00:44.146Z,460
2017-07-02T12:01:45.610Z,460
2017-07-02T12:02:47.027Z,470
2017-07-02T12:03:48.489Z,455
2017-07-02T12:04:49.901Z,485
2017-07-02T12:05:51.380Z,510
2017-07-02T12:06:52.792Z,520
2017-07-02T12:07:54.250Z,670
2017-07-02T12:08:55.661Z,580
2017-07-02T12:09:57.133Z,505
2017-07-02T12:10:58.544Z,460
2017-07-02T12:12:00.027Z,530
2017-07-02T12:13:01.441Z,625
2017-07-02T12:14:02.858Z,820
2017-07-02T12:15:04.345Z,630
2017-07-02T12:16:05.755Z,525
2017-07-02T12:17:07.162Z,430
2017-07-02T12:18:08.651Z,380
2017-07-02T12:19:10.064Z,395
2017-07-02T12:20:11.475Z,405
2017-07-02T12:21:13.083Z,440
2017-07-02T12:22:14.499Z,595
2017-07-02T12:23:15.916Z,1070
2017-07-02T12:24:17.605Z,735
2017-07-02T12:25:19.014Z,375
2017-07-02T12:26:20.428Z,775
2017-07-02T12:27:22.127Z,855
2017-07-02T12:28:23.544Z,615
2017-07-02T12:29:24.956Z,675
2017-07-02T12:30:26.651Z,670
2017-07-02T12:31:28.067Z,445
2017-07-02T12:32:29.481Z,395
2017-07-02T12:33:31.204Z,445
2017-07-02T12:34:32.595Z,425
2017-07-02T12:35:34.006Z,365
2017-07-02T12:36:35.719Z,480
2017-07-02T12:37:37.139Z,1185
2017-07-02T12:38:38.543Z,715
2017-07-02T12:39:40.224Z,655
2017-07-02T12:40:41.673Z,655
2017-07-02T12:41:43.319Z,445
2017-07-02T12:42:45.770Z,335
2017-07-02T12:43:47.433Z,435
2017-07-02T12:44:48.842Z,325
2017-07-02T12:45:50.514Z,385
2017-07-02T12:46:51.926Z,400
2017-07-02T12:47:53.601Z,330
2017-07-02T12:48:55.014Z,370
2017-07-02T12:49:56.682Z,525
2017-07-02T12:50:58.095Z,540
2017-07-02T12:51:59.767Z,500
2017-07-02T12:53:01.180Z,450
2017-07-02T12:54:02.590Z,345
2017-07-02T12:55:04.294Z,355
2017-07-02T12:56:05.708Z,365
2017-07-02T12:57:07.120Z,290
2017-07-02T12:58:08.825Z,340
2017-07-02T12:59:10.233Z,405
2017-07-02T13:00:11.960Z,390
2017-07-02T13:01:13.313Z,380
2017-07-02T13:02:15.368Z,385
2017-07-02T13:03:16.783Z,465
2017-07-02T13:04:18.197Z,415
2017-07-02T13:05:19.921Z,390
2017-07-02T13:06:21.336Z,420
2017-07-02T13:07:22.748Z,380
2017-07-02T13:08:24.454Z,385
2017-07-02T13:09:25.863Z,425
2017-07-02T13:10:27.276Z,395
2017-07-02T13:11:28.979Z,410
2017-07-02T13:12:30.394Z,415
2017-07-02T13:13:31.802Z,340
2017-07-02T13:14:33.503Z,430
2017-07-02T13:15:34.914Z,465
2017-07-02T13:16:36.586Z,395
2017-07-02T13:17:37.998Z,370
2017-07-02T13:18:39.796Z,380
2017-07-02T13:19:41.210Z,465
2017-07-02T13:20:43.003Z,560
2017-07-02T13:21:44.415Z,490
2017-07-02T13:22:45.829Z,480
2017-07-02T13:23:47.876Z,520
2017-07-02T13:24:49.302Z,510
2017-07-02T13:25:50.713Z,530
2017-07-02T13:26:52.425Z,605
2017-07-02T13:27:53.833Z,620
2017-07-02T13:28:55.246Z,570
2017-07-02T13:29:56.954Z,550
2017-07-02T13:30:58.377Z,440
2017-07-02T13:31:59.838Z,355
2017-07-02T13:33:01.485Z,330
2017-07-02T13:34:02.899Z,415
2017-07-02T13:35:04.307Z,540
2017-07-02T13:36:06.203Z,520
2017-07-02T13:37:07.614Z,380
2017-07-02T13:38:09.291Z,300
2017-07-02T13:39:10.699Z,365
2017-07-02T13:40:12.381Z,270
2017-07-02T13:41:13.784Z,290
2017-07-02T13:42:15.460Z,370
2017-07-02T13:43:16.869Z,345
2017-07-02T13:44:18.283Z,370
2017-07-02T13:45:19.986Z,470
2017-07-02T13:46:21.396Z,345
2017-07-02T13:47:22.810Z,335
2017-07-02T13:48:24.513Z,325
2017-07-02T13:49:25.921Z,360
2017-07-02T13:50:27.330Z,285
2017-07-02T13:51:29.034Z,210
2017-07-02T13:52:30.445Z,195
2017-07-02T13:53:31.859Z,220
2017-07-02T13:54:33.560Z,290
2017-07-02T13:55:34.972Z,355
2017-07-02T13:56:36.644Z,300
2017-07-02T13:57:38.056Z,245
2017-07-02T13:58:39.805Z,325
2017-07-02T13:59:41.181Z,360
2017-07-02T14:00:42.815Z,325
2017-07-02T14:01:44.226Z,245
2017-07-02T14:02:45.903Z,245
2017-07-02T14:03:47.309Z,220
2017-07-02T14:04:49.074Z,220
2017-07-02T14:05:50.520Z,270
2017-07-02T14:06:52.073Z,305
2017-07-02T14:07:53.734Z,305
2017-07-02T14:08:55.888Z,310
2017-07-02T14:09:57.816Z,305
2017-07-02T14:10:59.800Z,275
2017-07-02T14:12:01.796Z,200
2017-07-02T14:13:03.377Z,200
2017-07-02T14:14:04.787Z,165
2017-07-02T14:15:06.196Z,145
2017-07-02T14:16:07.698Z,140
2017-07-02T14:17:09.109Z,115
2017-07-02T14:18:10.780Z,80
2017-07-02T14:19:12.226Z,65
2017-07-02T14:20:13.644Z,45
2017-07-02T14:21:15.305Z,35
2017-07-02T14:22:16.714Z,35
2017-07-02T14:23:18.124Z,35
2017-07-02T14:24:19.626Z,30
2017-07-02T14:25:21.033Z,30
2017-07-02T14:26:22.711Z,40
2017-07-02T14:27:24.120Z,50
2017-07-02T14:28:25.800Z,60
2017-07-02T14:29:27.210Z,70
2017-07-02T14:30:28.882Z,70
2017-07-02T14:31:30.297Z,50
2017-07-02T14:32:31.967Z,40
2017-07-02T14:33:33.373Z,35
2017-07-02T14:34:35.052Z,35
2017-07-02T14:35:36.464Z,25
2017-07-02T14:36:38.139Z,15
2017-07-02T14:37:39.549Z,10
2017-07-02T14:38:41.224Z,10
2017-07-02T14:39:42.632Z,10
2017-07-02T14:40:44.044Z,15
2017-07-02T14:41:45.546Z,10
2017-07-02T14:42:46.957Z,10
2017-07-02T14:43:48.369Z,15
2017-07-02T14:44:49.867Z,15
2017-07-02T14:45:51.276Z,15
2017-07-02T14:46:52.951Z,25
2017-07-02T14:47:54.359Z,35
2017-07-02T14:48:56.037Z,30
2017-07-02T14:49:57.882Z,45
2017-07-02T14:50:59.308Z,70
2017-07-02T14:52:01.933Z,70
2017-07-02T14:53:03.340Z,85
2017-07-02T14:54:04.907Z,110
2017-07-02T14:55:06.526Z,165
2017-07-02T14:56:07.934Z,205
2017-07-02T14:57:09.608Z,285
2017-07-02T14:58:11.025Z,320
2017-07-02T14:59:12.710Z,345
2017-07-02T15:00:14.125Z,310
2017-07-02T15:01:15.700Z,310
2017-07-02T15:02:17.222Z,265
2017-07-02T15:03:18.630Z,235
2017-07-02T15:04:20.037Z,180
2017-07-02T15:05:21.540Z,145
2017-07-02T15:06:22.953Z,135
2017-07-02T15:07:24.359Z,130
2017-07-02T15:08:25.863Z,125
2017-07-02T15:09:27.372Z,130
2017-07-02T15:10:28.779Z,165
2017-07-02T15:11:30.387Z,190
2017-07-02T15:12:31.794Z,145
2017-07-02T15:13:33.205Z,140
2017-07-02T15:14:34.707Z,130
2017-07-02T15:15:36.116Z,155
2017-07-02T15:16:37.555Z,150
2017-07-02T15:17:39.029Z,165
2017-07-02T15:18:40.456Z,160
2017-07-02T15:19:41.871Z,180
2017-07-02T15:20:43.554Z,225
2017-07-02T15:21:44.968Z,210
2017-07-02T15:22:46.778Z,180
2017-07-02T15:23:48.285Z,170
2017-07-02T15:24:49.698Z,135
2017-07-02T15:25:51.578Z,120
2017-07-02T15:26:53.218Z,120
2017-07-02T15:27:54.629Z,110
2017-07-02T15:28:56.304Z,145
2017-07-02T15:29:57.714Z,145
2017-07-02T15:30:59.390Z,175
2017-07-02T15:32:00.803Z,160
2017-07-02T15:33:02.526Z,180
2017-07-02T15:34:03.937Z,180
2017-07-02T15:35:05.966Z,160
2017-07-02T15:36:07.377Z,145
2017-07-02T15:37:09.058Z,120
2017-07-02T15:38:10.464Z,115
2017-07-02T15:39:12.142Z,105
2017-07-02T15:40:13.586Z,100
2017-07-02T15:41:14.959Z,95
2017-07-02T15:42:16.462Z,100
2017-07-02T15:43:17.871Z,170
2017-07-02T15:44:19.277Z,190
2017-07-02T15:45:20.782Z,125
2017-07-02T15:46:22.194Z,155
2017-07-02T15:47:23.689Z,145
2017-07-02T15:48:25.310Z,145
2017-07-02T15:49:26.718Z,95
2017-07-02T15:50:28.128Z,115
2017-07-02T15:51:29.629Z,145
2017-07-02T15:52:31.037Z,190
2017-07-02T15:53:32.715Z,200
2017-07-02T15:54:34.123Z,185
2017-07-02T15:55:35.553Z,155
2017-07-02T15:56:37.035Z,130
2017-07-02T15:57:38.448Z,125
2017-07-02T15:58:39.853Z,110
2017-07-02T15:59:41.358Z,160
2017-07-02T16:00:42.770Z,240
2017-07-02T16:01:44.180Z,230
2017-07-02T16:02:45.676Z,195
2017-07-02T16:03:47.089Z,150
2017-07-02T16:04:48.768Z,160
2017-07-02T16:05:50.169Z,160
2017-07-02T16:06:51.643Z,150
2017-07-02T16:07:53.052Z,170
2017-07-02T16:08:54.522Z,210
2017-07-02T16:09:55.930Z,160
2017-07-02T16:10:57.609Z,140
2017-07-02T16:11:59.020Z,145
2017-07-02T16:13:00.693Z,130
2017-07-02T16:14:02.105Z,115
2017-07-02T16:15:03.779Z,135
2017-07-02T16:16:05.189Z,180
2017-07-02T16:17:06.863Z,160
2017-07-02T16:18:08.278Z,130
2017-07-02T16:19:09.951Z,110
2017-07-02T16:20:11.361Z,110
2017-07-02T16:21:12.830Z,120
2017-07-02T16:22:14.240Z,135
2017-07-02T16:23:15.710Z,175
2017-07-02T16:24:17.500Z,175
2017-07-02T16:25:19.001Z,150
2017-07-02T16:26:20.411Z,190
2017-07-02T16:27:21.818Z,210
2017-07-02T16:28:23.322Z,135
2017-07-02T16:29:24.733Z,135
2017-07-02T16:30:26.147Z,145
2017-07-02T16:31:27.644Z,150
2017-07-02T16:32:29.056Z,210
2017-07-02T16:33:30.468Z,230
2017-07-02T16:34:31.965Z,140
2017-07-02T16:35:33.371Z,95
2017-07-02T16:36:34.782Z,130
2017-07-02T16:37:36.284Z,130
2017-07-02T16:38:37.695Z,135
2017-07-02T16:39:39.164Z,155
2017-07-02T16:40:40.577Z,175
2017-07-02T16:41:42.046Z,125
2017-07-02T16:42:43.459Z,125
2017-07-02T16:43:44.926Z,135
2017-07-02T16:44:46.339Z,140
2017-07-02T16:45:47.750Z,165
2017-07-02T16:46:49.247Z,145
2017-07-02T16:47:50.665Z,125
2017-07-02T16:48:52.071Z,140
2017-07-02T16:49:53.567Z,120
2017-07-02T16:50:54.975Z,115
2017-07-02T16:51:56.385Z,155
2017-07-02T16:52:57.887Z,170
2017-07-02T16:53:59.302Z,130
2017-07-02T16:55:00.802Z,110
2017-07-02T16:56:02.208Z,110
2017-07-02T16:57:03.854Z,110
2017-07-02T16:58:05.271Z,130
2017-07-02T16:59:07.232Z,135
2017-07-02T17:00:08.640Z,135
2017-07-02T17:01:10.230Z,140
2017-07-02T17:02:11.649Z,140
2017-07-02T17:03:13.110Z,150
2017-07-02T17:04:14.896Z,145
2017-07-02T17:05:16.400Z,150
2017-07-02T17:06:17.811Z,130
2017-07-02T17:07:19.221Z,140
2017-07-02T17:08:20.720Z,125
2017-07-02T17:09:22.132Z,100
2017-07-02T17:10:23.539Z,110
2017-07-02T17:11:25.041Z,115
2017-07-02T17:12:26.452Z,100
2017-07-02T17:13:27.861Z,115
2017-07-02T17:14:29.745Z,90
2017-07-02T17:15:31.156Z,90
2017-07-02T17:16:32.566Z,90
2017-07-02T17:17:34.091Z,90
2017-07-02T17:18:35.499Z,90
2017-07-02T17:19:36.917Z,80
2017-07-02T17:20:38.412Z,70
2017-07-02T17:21:39.823Z,60
2017-07-02T17:22:41.254Z,65
2017-07-02T17:23:42.729Z,65
2017-07-02T17:24:44.145Z,60
2017-07-02T17:25:45.551Z,90
2017-07-02T17:26:47.054Z,95
2017-07-02T17:27:48.464Z,85
2017-07-02T17:28:49.950Z,95
2017-07-02T17:29:51.362Z,130
2017-07-02T17:30:52.892Z,115
2017-07-02T17:31:54.269Z,115
2017-07-02T17:32:55.990Z,125
2017-07-02T17:33:57.404Z,110
2017-07-02T17:34:58.986Z,125
2017-07-02T17:36:00.396Z,95
2017-07-02T17:37:01.873Z,85
2017-07-02T17:38:03.281Z,85
2017-07-02T17:39:04.684Z,95
2017-07-02T17:40:06.187Z,90
2017-07-02T17:41:07.600Z,80
2017-07-02T17:42:09.009Z,75
2017-07-02T17:43:10.509Z,80
2017-07-02T17:44:11.921Z,65
2017-07-02T17:45:13.393Z,65
2017-07-02T17:46:14.799Z,60
2017-07-02T17:47:16.204Z,70
2017-07-02T17:48:17.711Z,105
2017-07-02T17:49:19.499Z,130
2017-07-02T17:50:20.912Z,80
2017-07-02T17:51:22.441Z,65
2017-07-02T17:52:23.852Z,55
2017-07-02T17:53:25.260Z,50
2017-07-02T17:54:26.901Z,45
2017-07-02T17:55:28.307Z,45
2017-07-02T17:56:29.719Z,45
2017-07-02T17:57:31.285Z,45
2017-07-02T17:58:32.697Z,40
2017-07-02T17:59:34.494Z,40
2017-07-02T18:00:36.015Z,40
2017-07-02T18:01:37.804Z,40
2017-07-02T18:02:39.212Z,40
2017-07-02T18:03:40.746Z,40
2017-07-02T18:04:42.251Z,45
2017-07-02T18:05:43.623Z,65
2017-07-02T18:06:45.048Z,60
2017-07-02T18:08:26.416Z,40
2017-07-02T18:09:27.885Z,40
2017-07-02T18:10:49.632Z,35
2017-07-02T18:11:51.429Z,35
2017-07-02T18:13:13.192Z,35
2017-07-02T18:14:14.598Z,35
2017-07-02T18:15:16.006Z,30
2017-07-02T18:16:17.487Z,30
2017-07-02T18:17:18.900Z,30
2017-07-02T18:18:20.304Z,35
2017-07-02T18:19:21.806Z,45
2017-07-02T18:20:23.218Z,65
2017-07-02T18:21:24.689Z,80
2017-07-02T18:22:26.120Z,70
2017-07-02T18:23:27.570Z,50
2017-07-02T18:24:28.984Z,50
2017-07-02T18:25:30.448Z,50
2017-07-02T18:26:31.859Z,50
2017-07-02T18:27:33.330Z,50
2017-07-02T18:28:34.748Z,40
2017-07-02T18:29:36.207Z,40
2017-07-02T18:30:37.622Z,45
2017-07-02T18:31:39.090Z,50
2017-07-02T18:32:40.499Z,50
2017-07-02T18:33:41.990Z,45
2017-07-02T18:34:43.420Z,45
2017-07-02T18:35:44.852Z,40
2017-07-02T18:36:46.258Z,40
2017-07-02T18:37:47.745Z,40
2017-07-02T18:38:49.157Z,50
2017-07-02T18:39:50.610Z,50
2017-07-02T18:40:52.025Z,45
2017-07-02T18:41:53.491Z,45
2017-07-02T18:42:54.916Z,40
2017-07-02T18:43:56.327Z,45
2017-07-02T18:44:57.816Z,50
2017-07-02T18:45:59.228Z,55
2017-07-02T18:47:00.664Z,50
2017-07-02T18:48:02.137Z,50
2017-07-02T18:49:03.567Z,55
2017-07-02T18:50:05.015Z,55
2017-07-02T18:51:06.564Z,55
2017-07-02T18:52:07.974Z,40
2017-07-02T18:53:09.386Z,30
2017-07-02T18:54:11.211Z,25
2017-07-02T18:55:12.626Z,25
2017-07-02T18:56:14.168Z,20
2017-07-02T18:57:15.577Z,20
2017-07-02T18:58:17.253Z,20
2017-07-02T18:59:18.661Z,20
2017-07-02T19:00:20.339Z,20
2017-07-02T19:01:21.757Z,20
2017-07-02T19:02:23.426Z,20
2017-07-02T19:03:24.832Z,20
2017-07-02T19:04:26.509Z,20
2017-07-02T19:05:27.931Z,20
2017-07-02T19:06:29.596Z,20
2017-07-02T19:07:31.006Z,15
2017-07-02T19:08:32.680Z,15
2017-07-02T19:09:34.102Z,15
2017-07-02T19:10:35.765Z,15
2017-07-02T19:11:37.184Z,20
2017-07-02T19:12:38.852Z,20
2017-07-02T19:13:40.258Z,20
2017-07-02T19:14:41.939Z,20
2017-07-02T19:15:43.349Z,20
2017-07-02T19:16:45.022Z,20
2017-07-02T19:17:46.467Z,20
2017-07-02T19:18:48.106Z,15
2017-07-02T19:19:49.513Z,15
2017-07-02T19:20:51.193Z,10
2017-07-02T19:21:52.603Z,10
2017-07-02T19:22:54.278Z,10
2017-07-02T19:23:55.691Z,10
2017-07-02T19:24:57.364Z,10
2017-07-02T19:25:58.780Z,10
2017-07-02T19:27:00.457Z,10
2017-07-02T19:28:01.866Z,10
2017-07-02T19:29:03.279Z,10
2017-07-02T19:30:04.977Z,10
2017-07-02T19:31:06.386Z,10
2017-07-02T19:32:07.794Z,10
2017-07-02T19:33:09.563Z,10
2017-07-02T19:34:11.871Z,5
2017-07-02T19:35:13.409Z,10
2017-07-02T19:36:14.818Z,5
2017-07-02T19:37:16.747Z,5
2017-07-02T19:38:18.156Z,5
2017-07-02T19:39:19.780Z,5
2017-07-02T19:40:21.186Z,5
2017-07-02T19:41:22.869Z,5
2017-07-02T19:42:24.273Z,5
2017-07-02T19:43:25.682Z,5
2017-07-02T19:44:27.395Z,5
2017-07-02T19:45:28.799Z,5
2017-07-02T19:46:30.204Z,0
2017-07-02T19:47:31.919Z,0
2017-07-02T19:48:33.318Z,0
2017-07-02T19:49:34.720Z,0
2017-07-02T19:50:36.236Z,0
2017-07-02T19:51:37.644Z,0
2017-07-02T19:52:39.050Z,0
2017-07-02T19:53:40.764Z,0
2017-07-02T19:54:42.171Z,0
2017-07-02T19:55:43.577Z,0
2017-07-02T19:56:45.289Z,0
2017-07-02T19:57:46.692Z,0
2017-07-02T19:58:48.099Z,0
2017-07-02T19:59:49.610Z,0
2017-07-02T20:00:51.013Z,0
2017-07-02T20:01:52.694Z,0
2017-07-02T20:02:54.100Z,0
2017-07-02T20:03:55.782Z,0
2017-07-02T20:04:57.185Z,0
2017-07-02T20:05:58.870Z,0
2017-07-02T20:07:00.271Z,0
2017-07-02T20:08:01.948Z,0
2017-07-02T20:09:03.353Z,0
2017-07-02T20:10:05.045Z,0
2017-07-02T20:11:06.462Z,0
2017-07-02T20:12:08.119Z,0
2017-07-02T20:13:09.524Z,0
2017-07-02T20:14:11.252Z,0
2017-07-02T20:15:12.659Z,0
2017-07-02T20:16:14.289Z,0
2017-07-02T20:17:15.693Z,0
2017-07-02T20:18:17.374Z,0
2017-07-02T20:19:18.778Z,0
2017-07-02T20:20:20.190Z,0
2017-07-02T20:21:21.695Z,0
2017-07-02T20:22:23.101Z,0
2017-07-02T20:23:24.503Z,0
2017-07-02T20:24:26.016Z,0
2017-07-02T20:25:27.422Z,0
2017-07-02T20:26:29.100Z,0
2017-07-02T20:27:30.505Z,0
2017-07-02T20:28:32.191Z,0
2017-07-02T20:29:33.594Z,0
2017-07-02T20:30:34.998Z,0
2017-07-02T20:31:36.506Z,0
2017-07-02T20:32:37.910Z,0
2017-07-02T20:33:39.317Z,0
2017-07-02T20:34:40.827Z,0
2017-07-02T20:35:42.234Z,0
2017-07-02T20:36:43.913Z,0
2017-07-02T20:37:45.317Z,0
2017-07-02T20:38:47.000Z,0
2017-07-02T20:39:48.402Z,0
2017-07-02T20:40:49.811Z,0
2017-07-02T20:41:51.320Z,0
2017-07-02T20:42:52.726Z,0
2017-07-02T20:43:54.131Z,0
2017-07-02T20:44:55.643Z,0
2017-07-02T20:45:57.042Z,0
2017-07-02T20:46:58.732Z,0
2017-07-02T20:48:00.137Z,0
2017-07-02T20:49:02.870Z,0
2017-07-02T20:50:04.279Z,0
2017-07-02T20:51:05.681Z,0
2017-07-02T20:52:07.361Z,0
2017-07-02T20:53:08.787Z,0
2017-07-02T20:54:10.191Z,0
2017-07-02T20:55:11.885Z,0
2017-07-02T20:56:13.292Z,0
2017-07-02T20:57:14.694Z,0
2017-07-02T20:58:16.207Z,0
2017-07-02T20:59:17.610Z,0
2017-07-02T21:00:19.025Z,0
2017-07-02T21:01:20.527Z,0